JFA50L EGKB-LIRN
Flight info
| Callsign | JFA50L |
|---|---|
| Flight time | 2h 30m |
| Altitude | 41000 |
| Route | DVR UL9 KONAN UL607 KOK M150 DIK N852 GTQ DCT DEVDI DCT BERSU DCT ODINA DCT ROBAS DCT LOMED DCT GITOD DCT ALAXI |
| Aircraft | PC24/M-SBDGIRWY/LB2 |
Departure
| Time | 2026-04-26 10:57 |
|---|---|
| Airport | London Biggin Hill Airport (EGKB) |
Arrival
| Time | 2026-04-26 13:28 |
|---|---|
| Airport | Naples International Airport (LIRN) |
| Time | Latitude | Longitude | Altitude | Speed | Heading |
|---|---|---|---|---|---|
| 2026-04-26 10:33 | 51.33197 | 0.02964 | 555 ft | 0 kts | 106° |
| 2026-04-26 10:53 | 51.33192 | 0.02981 | 563 ft | 7 kts | 126° |
| 2026-04-26 10:53 | 51.33118 | 0.02991 | 560 ft | 15 kts | 198° |
| 2026-04-26 10:54 | 51.32844 | 0.02803 | 574 ft | 24 kts | 210° |
| 2026-04-26 10:54 | 51.32704 | 0.02670 | 577 ft | 23 kts | 202° |
| 2026-04-26 10:54 | 51.32557 | 0.02566 | 584 ft | 23 kts | 203° |
| 2026-04-26 10:54 | 51.32463 | 0.02564 | 588 ft | 0 kts | 165° |
| 2026-04-26 10:55 | 51.32458 | 0.02566 | 588 ft | 5 kts | 165° |
| 2026-04-26 10:56 | 51.32414 | 0.02645 | 589 ft | 15 kts | 118° |
| 2026-04-26 10:56 | 51.32444 | 0.02745 | 588 ft | 5 kts | 25° |
| 2026-04-26 10:56 | 51.32445 | 0.02746 | 588 ft | 0 kts | 26° |
| 2026-04-26 10:56 | 51.32466 | 0.02762 | 587 ft | 17 kts | 26° |
| 2026-04-26 10:57 | 51.32775 | 0.02994 | 573 ft | 85 kts | 25° |
| 2026-04-26 10:57 | 51.33503 | 0.03570 | 612 ft | 144 kts | 28° |
| 2026-04-26 10:57 | 51.34522 | 0.04313 | 1121 ft | 178 kts | 25° |
| 2026-04-26 10:57 | 51.35515 | 0.05658 | 1726 ft | 196 kts | 64° |
| 2026-04-26 10:58 | 51.35673 | 0.07755 | 2142 ft | 195 kts | 104° |
| 2026-04-26 10:58 | 51.35053 | 0.09754 | 2214 ft | 207 kts | 121° |
| 2026-04-26 10:58 | 51.34288 | 0.11691 | 2209 ft | 202 kts | 122° |
| 2026-04-26 10:58 | 51.33607 | 0.13605 | 2193 ft | 196 kts | 110° |
| 2026-04-26 10:59 | 51.33354 | 0.15700 | 2187 ft | 187 kts | 95° |
| 2026-04-26 10:59 | 51.33218 | 0.17799 | 2201 ft | 201 kts | 96° |
| 2026-04-26 10:59 | 51.33056 | 0.20171 | 2231 ft | 228 kts | 96° |
| 2026-04-26 10:59 | 51.32890 | 0.22609 | 3518 ft | 207 kts | 96° |
| 2026-04-26 11:00 | 51.32740 | 0.24882 | 4680 ft | 210 kts | 96° |
| 2026-04-26 11:00 | 51.32584 | 0.27245 | 5695 ft | 215 kts | 96° |
| 2026-04-26 11:00 | 51.32419 | 0.29653 | 6735 ft | 220 kts | 96° |
| 2026-04-26 11:00 | 51.32257 | 0.32106 | 7653 ft | 224 kts | 96° |
| 2026-04-26 11:01 | 51.32087 | 0.34605 | 8642 ft | 228 kts | 95° |
| 2026-04-26 11:01 | 51.31919 | 0.37150 | 9627 ft | 233 kts | 95° |
| 2026-04-26 11:01 | 51.31739 | 0.39745 | 10531 ft | 236 kts | 94° |
| 2026-04-26 11:01 | 51.31567 | 0.42380 | 11442 ft | 240 kts | 95° |
| 2026-04-26 11:02 | 51.31390 | 0.45045 | 12316 ft | 243 kts | 96° |
| 2026-04-26 11:02 | 51.31210 | 0.47744 | 13228 ft | 246 kts | 96° |
| 2026-04-26 11:02 | 51.31026 | 0.50485 | 14156 ft | 250 kts | 96° |
| 2026-04-26 11:02 | 51.30839 | 0.53267 | 14971 ft | 254 kts | 96° |
| 2026-04-26 11:03 | 51.30649 | 0.56100 | 15793 ft | 259 kts | 96° |
| 2026-04-26 11:03 | 51.30449 | 0.58983 | 16625 ft | 263 kts | 97° |
| 2026-04-26 11:03 | 51.30022 | 0.61850 | 17418 ft | 268 kts | 108° |
| 2026-04-26 11:03 | 51.29480 | 0.64725 | 18216 ft | 273 kts | 107° |
| 2026-04-26 11:04 | 51.28959 | 0.67623 | 18939 ft | 277 kts | 107° |
| 2026-04-26 11:04 | 51.28413 | 0.70641 | 19650 ft | 281 kts | 107° |
| 2026-04-26 11:04 | 51.27860 | 0.73652 | 20374 ft | 285 kts | 107° |
| 2026-04-26 11:04 | 51.27299 | 0.76708 | 21108 ft | 288 kts | 107° |
| 2026-04-26 11:05 | 51.26727 | 0.79819 | 21833 ft | 293 kts | 107° |
| 2026-04-26 11:05 | 51.26163 | 0.82894 | 22535 ft | 296 kts | 107° |
| 2026-04-26 11:05 | 51.25577 | 0.86069 | 23238 ft | 300 kts | 107° |
| 2026-04-26 11:05 | 51.24983 | 0.89285 | 23944 ft | 304 kts | 107° |
| 2026-04-26 11:06 | 51.24382 | 0.92538 | 24524 ft | 307 kts | 108° |
| 2026-04-26 11:06 | 51.23971 | 0.94756 | 24916 ft | 309 kts | 108° |
| 2026-04-26 11:06 | 51.23158 | 0.99144 | 25677 ft | 314 kts | 108° |
| 2026-04-26 11:06 | 51.22534 | 1.02496 | 26231 ft | 317 kts | 108° |
| 2026-04-26 11:07 | 51.21905 | 1.05878 | 26791 ft | 320 kts | 108° |
| 2026-04-26 11:07 | 51.21270 | 1.09282 | 27289 ft | 312 kts | 108° |
| 2026-04-26 11:07 | 51.20673 | 1.12487 | 27754 ft | 295 kts | 108° |
| 2026-04-26 11:07 | 51.20084 | 1.15621 | 28251 ft | 296 kts | 109° |
| 2026-04-26 11:08 | 51.19494 | 1.18763 | 28754 ft | 298 kts | 109° |
| 2026-04-26 11:08 | 51.18878 | 1.22035 | 28779 ft | 319 kts | 109° |
| 2026-04-26 11:08 | 51.18220 | 1.25523 | 28948 ft | 334 kts | 108° |
| 2026-04-26 11:08 | 51.17554 | 1.29079 | 29508 ft | 335 kts | 108° |
| 2026-04-26 11:09 | 51.16877 | 1.32662 | 29988 ft | 339 kts | 109° |
| 2026-04-26 11:09 | 51.16272 | 1.36309 | 30441 ft | 344 kts | 100° |
| 2026-04-26 11:09 | 51.16068 | 1.40119 | 30860 ft | 346 kts | 95° |
| 2026-04-26 11:09 | 51.15888 | 1.43954 | 31279 ft | 348 kts | 95° |
| 2026-04-26 11:10 | 51.15695 | 1.47810 | 31690 ft | 350 kts | 95° |
| 2026-04-26 11:10 | 51.15505 | 1.51727 | 31810 ft | 362 kts | 95° |
| 2026-04-26 11:10 | 51.15313 | 1.55765 | 32053 ft | 368 kts | 95° |
| 2026-04-26 11:10 | 51.15115 | 1.59861 | 32322 ft | 373 kts | 95° |
| 2026-04-26 11:11 | 51.14909 | 1.64012 | 32592 ft | 378 kts | 95° |
| 2026-04-26 11:11 | 51.14701 | 1.68208 | 32864 ft | 382 kts | 95° |
| 2026-04-26 11:11 | 51.14489 | 1.72451 | 33134 ft | 386 kts | 95° |
| 2026-04-26 11:11 | 51.14278 | 1.76675 | 33403 ft | 390 kts | 95° |
| 2026-04-26 11:12 | 51.14058 | 1.81003 | 33504 ft | 398 kts | 95° |
| 2026-04-26 11:12 | 51.13831 | 1.85457 | 33491 ft | 408 kts | 95° |
| 2026-04-26 11:12 | 51.13596 | 1.90024 | 33334 ft | 420 kts | 95° |
| 2026-04-26 11:12 | 51.13354 | 1.94706 | 33335 ft | 428 kts | 95° |
| 2026-04-26 11:13 | 51.12851 | 2.04291 | 33334 ft | 440 kts | 95° |
| 2026-04-26 11:13 | 51.12330 | 2.14062 | 33331 ft | 445 kts | 95° |
| 2026-04-26 11:14 | 51.11800 | 2.23859 | 33336 ft | 443 kts | 95° |
| 2026-04-26 11:14 | 51.11350 | 2.32041 | 33336 ft | 442 kts | 95° |
| 2026-04-26 11:15 | 51.10718 | 2.43367 | 33343 ft | 443 kts | 95° |
| 2026-04-26 11:15 | 51.10163 | 2.53159 | 33350 ft | 445 kts | 95° |
| 2026-04-26 11:16 | 51.09474 | 2.62955 | 33334 ft | 445 kts | 102° |
| 2026-04-26 11:16 | 51.08545 | 2.67622 | 33599 ft | 436 kts | 114° |
| 2026-04-26 11:16 | 51.07261 | 2.71808 | 34846 ft | 407 kts | 119° |
| 2026-04-26 11:17 | 51.05996 | 2.75660 | 36024 ft | 379 kts | 118° |
| 2026-04-26 11:17 | 51.04798 | 2.79274 | 36962 ft | 362 kts | 119° |
| 2026-04-26 11:17 | 51.03622 | 2.82778 | 37355 ft | 361 kts | 119° |
| 2026-04-26 11:17 | 51.02425 | 2.86352 | 37340 ft | 371 kts | 119° |
| 2026-04-26 11:18 | 50.99956 | 2.93758 | 37351 ft | 388 kts | 119° |
| 2026-04-26 11:18 | 50.97371 | 3.01466 | 37346 ft | 403 kts | 119° |
| 2026-04-26 11:19 | 50.94697 | 3.09427 | 37342 ft | 415 kts | 119° |
| 2026-04-26 11:19 | 50.91941 | 3.17593 | 37337 ft | 425 kts | 119° |
| 2026-04-26 11:20 | 50.89603 | 3.24506 | 37327 ft | 432 kts | 119° |
| 2026-04-26 11:20 | 50.86279 | 3.34303 | 37326 ft | 436 kts | 119° |
| 2026-04-26 11:21 | 50.83401 | 3.42748 | 37324 ft | 435 kts | 119° |
| 2026-04-26 11:21 | 50.80526 | 3.51161 | 37323 ft | 434 kts | 119° |
| 2026-04-26 11:22 | 50.77631 | 3.59604 | 37320 ft | 434 kts | 119° |
| 2026-04-26 11:22 | 50.74751 | 3.67974 | 37316 ft | 434 kts | 118° |
| 2026-04-26 11:23 | 50.71879 | 3.76294 | 37313 ft | 435 kts | 118° |
| 2026-04-26 11:23 | 50.68974 | 3.84679 | 37316 ft | 436 kts | 119° |
| 2026-04-26 11:24 | 50.66058 | 3.93073 | 37311 ft | 436 kts | 119° |
| 2026-04-26 11:24 | 50.63152 | 4.01407 | 37314 ft | 433 kts | 119° |
| 2026-04-26 11:25 | 50.60244 | 4.09722 | 37310 ft | 434 kts | 119° |
| 2026-04-26 11:25 | 50.57834 | 4.16593 | 37547 ft | 415 kts | 119° |
| 2026-04-26 11:26 | 50.56458 | 4.20504 | 37801 ft | 413 kts | 119° |
| 2026-04-26 11:26 | 50.55076 | 4.24428 | 38250 ft | 406 kts | 119° |
| 2026-04-26 11:26 | 50.53722 | 4.28271 | 38798 ft | 398 kts | 119° |
| 2026-04-26 11:26 | 50.52393 | 4.32030 | 39273 ft | 389 kts | 119° |
| 2026-04-26 11:27 | 50.51092 | 4.35711 | 39710 ft | 381 kts | 119° |
| 2026-04-26 11:27 | 50.49815 | 4.39313 | 40156 ft | 373 kts | 119° |
| 2026-04-26 11:27 | 50.48560 | 4.42854 | 40477 ft | 370 kts | 119° |
| 2026-04-26 11:27 | 50.47305 | 4.46386 | 40701 ft | 370 kts | 119° |
| 2026-04-26 11:28 | 50.46050 | 4.49914 | 40938 ft | 370 kts | 119° |
| 2026-04-26 11:28 | 50.44797 | 4.53429 | 41182 ft | 369 kts | 120° |
| 2026-04-26 11:28 | 50.43538 | 4.56960 | 41302 ft | 372 kts | 120° |
| 2026-04-26 11:28 | 50.42262 | 4.60538 | 41321 ft | 379 kts | 120° |
| 2026-04-26 11:29 | 50.39642 | 4.67854 | 41327 ft | 391 kts | 119° |
| 2026-04-26 11:29 | 50.36945 | 4.75368 | 41324 ft | 400 kts | 119° |
| 2026-04-26 11:30 | 50.34634 | 4.81787 | 41317 ft | 407 kts | 120° |
| 2026-04-26 11:30 | 50.31373 | 4.90822 | 41301 ft | 413 kts | 120° |
| 2026-04-26 11:31 | 50.28523 | 4.98690 | 41288 ft | 418 kts | 120° |
| 2026-04-26 11:31 | 50.25637 | 5.06632 | 41286 ft | 422 kts | 120° |
| 2026-04-26 11:32 | 50.22723 | 5.14630 | 41286 ft | 425 kts | 120° |
| 2026-04-26 11:32 | 50.19782 | 5.22674 | 41280 ft | 428 kts | 120° |
| 2026-04-26 11:33 | 50.16821 | 5.30748 | 41275 ft | 429 kts | 120° |
| 2026-04-26 11:33 | 50.13851 | 5.38820 | 41271 ft | 430 kts | 120° |
| 2026-04-26 11:34 | 50.10874 | 5.46891 | 41268 ft | 429 kts | 120° |
| 2026-04-26 11:34 | 50.07892 | 5.54941 | 41266 ft | 429 kts | 120° |
| 2026-04-26 11:35 | 50.04910 | 5.62972 | 41262 ft | 428 kts | 120° |
| 2026-04-26 11:35 | 50.01932 | 5.70966 | 41257 ft | 427 kts | 120° |
| 2026-04-26 11:36 | 49.98944 | 5.78962 | 41258 ft | 428 kts | 120° |
| 2026-04-26 11:36 | 49.95938 | 5.86978 | 41259 ft | 430 kts | 121° |
| 2026-04-26 11:37 | 49.92918 | 5.95014 | 41258 ft | 431 kts | 121° |
| 2026-04-26 11:37 | 49.89912 | 6.02981 | 41258 ft | 430 kts | 121° |
| 2026-04-26 11:38 | 49.86534 | 6.10549 | 41246 ft | 426 kts | 135° |
| 2026-04-26 11:38 | 49.84313 | 6.13560 | 41247 ft | 423 kts | 146° |
| 2026-04-26 11:38 | 49.81804 | 6.15903 | 41254 ft | 422 kts | 156° |
| 2026-04-26 11:39 | 49.76427 | 6.19564 | 41274 ft | 424 kts | 158° |
| 2026-04-26 11:39 | 49.71015 | 6.23244 | 41273 ft | 425 kts | 158° |
| 2026-04-26 11:40 | 49.65616 | 6.26885 | 41267 ft | 422 kts | 158° |
| 2026-04-26 11:40 | 49.60235 | 6.30459 | 41261 ft | 420 kts | 160° |
| 2026-04-26 11:42 | 49.38663 | 6.44966 | 41247 ft | 424 kts | 157° |
| 2026-04-26 11:43 | 49.33299 | 6.48635 | 41236 ft | 421 kts | 158° |
| 2026-04-26 11:43 | 49.27935 | 6.52247 | 41232 ft | 421 kts | 159° |
| 2026-04-26 11:44 | 49.22544 | 6.55818 | 41236 ft | 423 kts | 159° |
| 2026-04-26 11:44 | 49.17134 | 6.59417 | 41241 ft | 425 kts | 159° |
| 2026-04-26 11:45 | 49.11758 | 6.62973 | 41234 ft | 423 kts | 159° |
| 2026-04-26 11:45 | 49.06332 | 6.66560 | 41232 ft | 421 kts | 159° |
| 2026-04-26 11:46 | 49.00990 | 6.70078 | 41234 ft | 420 kts | 159° |
| 2026-04-26 11:46 | 48.95636 | 6.73640 | 41231 ft | 421 kts | 158° |
| 2026-04-26 11:47 | 48.90295 | 6.77351 | 41236 ft | 423 kts | 158° |
| 2026-04-26 11:47 | 48.84902 | 6.80993 | 41236 ft | 425 kts | 158° |
| 2026-04-26 11:48 | 48.79514 | 6.84673 | 41231 ft | 423 kts | 158° |
| 2026-04-26 11:48 | 48.74154 | 6.88300 | 41222 ft | 421 kts | 158° |
| 2026-04-26 11:49 | 48.68821 | 6.91912 | 41217 ft | 420 kts | 158° |
| 2026-04-26 11:49 | 48.63457 | 6.95531 | 41217 ft | 424 kts | 158° |
| 2026-04-26 11:50 | 48.58061 | 6.99165 | 41215 ft | 424 kts | 158° |
| 2026-04-26 11:50 | 48.52690 | 7.02776 | 41215 ft | 421 kts | 158° |
| 2026-04-26 11:51 | 48.47342 | 7.06359 | 41212 ft | 420 kts | 158° |
| 2026-04-26 11:51 | 48.41988 | 7.09941 | 41207 ft | 422 kts | 158° |
| 2026-04-26 11:52 | 48.37522 | 7.12922 | 41204 ft | 423 kts | 158° |
| 2026-04-26 11:52 | 48.31216 | 7.17121 | 41210 ft | 425 kts | 158° |
| 2026-04-26 11:53 | 48.25817 | 7.20707 | 41206 ft | 423 kts | 158° |
| 2026-04-26 11:54 | 48.17788 | 7.26023 | 41201 ft | 420 kts | 158° |
| 2026-04-26 11:54 | 48.12430 | 7.29561 | 41206 ft | 422 kts | 158° |
| 2026-04-26 11:55 | 48.07050 | 7.33106 | 41209 ft | 423 kts | 158° |
| 2026-04-26 11:55 | 48.01656 | 7.36652 | 41211 ft | 423 kts | 158° |
| 2026-04-26 11:56 | 47.96281 | 7.40178 | 41209 ft | 421 kts | 158° |
| 2026-04-26 11:56 | 47.90961 | 7.43658 | 41206 ft | 419 kts | 159° |
| 2026-04-26 11:57 | 47.85623 | 7.47144 | 41203 ft | 419 kts | 159° |
| 2026-04-26 11:57 | 47.80273 | 7.50629 | 41204 ft | 420 kts | 159° |
| 2026-04-26 11:58 | 47.74901 | 7.54119 | 41209 ft | 422 kts | 159° |
| 2026-04-26 11:58 | 47.69523 | 7.57649 | 41213 ft | 423 kts | 158° |
| 2026-04-26 11:59 | 47.64164 | 7.61192 | 41212 ft | 421 kts | 158° |
| 2026-04-26 11:59 | 47.58825 | 7.64693 | 41208 ft | 419 kts | 158° |
| 2026-04-26 12:00 | 47.53509 | 7.68182 | 41203 ft | 418 kts | 158° |
| 2026-04-26 12:00 | 47.48167 | 7.71673 | 41195 ft | 421 kts | 158° |
| 2026-04-26 12:01 | 47.42794 | 7.75182 | 41205 ft | 423 kts | 159° |
| 2026-04-26 12:01 | 47.37432 | 7.78673 | 41201 ft | 419 kts | 159° |
| 2026-04-26 12:02 | 47.32087 | 7.82147 | 41181 ft | 417 kts | 159° |
| 2026-04-26 12:02 | 47.26783 | 7.85583 | 41179 ft | 420 kts | 159° |
| 2026-04-26 12:03 | 47.21413 | 7.89060 | 41190 ft | 422 kts | 159° |
| 2026-04-26 12:03 | 47.16054 | 7.92518 | 41186 ft | 419 kts | 159° |
| 2026-04-26 12:04 | 47.10780 | 7.96125 | 41180 ft | 418 kts | 156° |
| 2026-04-26 12:04 | 47.05533 | 7.99866 | 41183 ft | 421 kts | 156° |
| 2026-04-26 12:05 | 47.00258 | 8.03633 | 41173 ft | 422 kts | 156° |
| 2026-04-26 12:05 | 46.94982 | 8.07393 | 41175 ft | 421 kts | 156° |
| 2026-04-26 12:06 | 46.89730 | 8.11122 | 41172 ft | 418 kts | 156° |
| 2026-04-26 12:06 | 46.84527 | 8.14813 | 41154 ft | 419 kts | 156° |
| 2026-04-26 12:07 | 46.79250 | 8.18547 | 41156 ft | 419 kts | 156° |
| 2026-04-26 12:07 | 46.73990 | 8.22257 | 41158 ft | 421 kts | 156° |
| 2026-04-26 12:08 | 46.68701 | 8.25985 | 41161 ft | 422 kts | 156° |
| 2026-04-26 12:08 | 46.63452 | 8.29672 | 41144 ft | 421 kts | 156° |
| 2026-04-26 12:09 | 46.58192 | 8.33362 | 41154 ft | 422 kts | 156° |
| 2026-04-26 12:09 | 46.52908 | 8.37060 | 41146 ft | 420 kts | 156° |
| 2026-04-26 12:10 | 46.47646 | 8.40733 | 41131 ft | 420 kts | 156° |
| 2026-04-26 12:10 | 46.42377 | 8.44405 | 41123 ft | 421 kts | 156° |
| 2026-04-26 12:11 | 46.37086 | 8.48084 | 41114 ft | 422 kts | 157° |
| 2026-04-26 12:11 | 46.32652 | 8.51161 | 41101 ft | 421 kts | 156° |
| 2026-04-26 12:12 | 46.27421 | 8.54783 | 41086 ft | 420 kts | 156° |
| 2026-04-26 12:12 | 46.22162 | 8.58418 | 41077 ft | 418 kts | 157° |
| 2026-04-26 12:13 | 46.16921 | 8.62032 | 41077 ft | 417 kts | 157° |
| 2026-04-26 12:13 | 46.11676 | 8.65658 | 41078 ft | 419 kts | 155° |
| 2026-04-26 12:13 | 46.09225 | 8.67938 | 41076 ft | 421 kts | 143° |
| 2026-04-26 12:14 | 46.06966 | 8.70622 | 41087 ft | 422 kts | 142° |
| 2026-04-26 12:14 | 46.02426 | 8.76013 | 41111 ft | 425 kts | 142° |
| 2026-04-26 12:15 | 45.97870 | 8.81412 | 41110 ft | 424 kts | 142° |
| 2026-04-26 12:15 | 45.93324 | 8.86785 | 41106 ft | 422 kts | 142° |
| 2026-04-26 12:16 | 45.88789 | 8.92136 | 41105 ft | 421 kts | 142° |
| 2026-04-26 12:16 | 45.84259 | 8.97468 | 41095 ft | 422 kts | 142° |
| 2026-04-26 12:17 | 45.79710 | 9.02810 | 41094 ft | 423 kts | 142° |
| 2026-04-26 12:17 | 45.75143 | 9.08162 | 41094 ft | 425 kts | 142° |
| 2026-04-26 12:18 | 45.70558 | 9.13524 | 41098 ft | 426 kts | 142° |
| 2026-04-26 12:18 | 45.65980 | 9.18867 | 41097 ft | 423 kts | 142° |
| 2026-04-26 12:19 | 45.61431 | 9.24163 | 41092 ft | 420 kts | 142° |
| 2026-04-26 12:19 | 45.56890 | 9.29439 | 41093 ft | 422 kts | 143° |
| 2026-04-26 12:20 | 45.52314 | 9.34742 | 41100 ft | 425 kts | 143° |
| 2026-04-26 12:20 | 45.47721 | 9.40057 | 41102 ft | 424 kts | 143° |
| 2026-04-26 12:21 | 45.43150 | 9.45333 | 41097 ft | 422 kts | 143° |
| 2026-04-26 12:21 | 45.38595 | 9.50579 | 41151 ft | 421 kts | 143° |
| 2026-04-26 12:22 | 45.34017 | 9.55840 | 41140 ft | 425 kts | 143° |
| 2026-04-26 12:22 | 45.29418 | 9.61117 | 41122 ft | 424 kts | 143° |
| 2026-04-26 12:23 | 45.24845 | 9.66349 | 41096 ft | 421 kts | 143° |
| 2026-04-26 12:23 | 45.20282 | 9.71560 | 41076 ft | 422 kts | 143° |
| 2026-04-26 12:24 | 45.15687 | 9.76750 | 41073 ft | 423 kts | 144° |
| 2026-04-26 12:24 | 45.11061 | 9.81915 | 41073 ft | 423 kts | 143° |
| 2026-04-26 12:25 | 45.04138 | 9.89664 | 41074 ft | 423 kts | 143° |
| 2026-04-26 12:25 | 44.99520 | 9.94814 | 41074 ft | 423 kts | 143° |
| 2026-04-26 12:26 | 44.94903 | 9.99953 | 41077 ft | 422 kts | 143° |
| 2026-04-26 12:26 | 44.90286 | 10.05079 | 41096 ft | 422 kts | 144° |
| 2026-04-26 12:27 | 44.85704 | 10.10158 | 41099 ft | 421 kts | 144° |
| 2026-04-26 12:27 | 44.81061 | 10.15291 | 41095 ft | 421 kts | 144° |
| 2026-04-26 12:28 | 44.76455 | 10.20375 | 41095 ft | 421 kts | 144° |
| 2026-04-26 12:28 | 44.71845 | 10.25451 | 41099 ft | 420 kts | 144° |
| 2026-04-26 12:29 | 44.67247 | 10.30504 | 41105 ft | 419 kts | 144° |
| 2026-04-26 12:30 | 44.60350 | 10.38064 | 41119 ft | 419 kts | 144° |
| 2026-04-26 12:30 | 44.55783 | 10.43057 | 41129 ft | 419 kts | 144° |
| 2026-04-26 12:31 | 44.48887 | 10.50579 | 41152 ft | 420 kts | 144° |
| 2026-04-26 12:31 | 44.44247 | 10.55623 | 41166 ft | 423 kts | 144° |
| 2026-04-26 12:32 | 44.39594 | 10.60675 | 41174 ft | 423 kts | 144° |
| 2026-04-26 12:33 | 44.32645 | 10.68199 | 41166 ft | 420 kts | 144° |
| 2026-04-26 12:33 | 44.28032 | 10.73180 | 41170 ft | 419 kts | 144° |
| 2026-04-26 12:34 | 44.23397 | 10.78175 | 41174 ft | 422 kts | 144° |
| 2026-04-26 12:34 | 44.18733 | 10.83190 | 41169 ft | 423 kts | 144° |
| 2026-04-26 12:35 | 44.14087 | 10.88178 | 41158 ft | 420 kts | 144° |
| 2026-04-26 12:35 | 44.09462 | 10.93131 | 41148 ft | 420 kts | 144° |
| 2026-04-26 12:36 | 44.04820 | 10.98093 | 41141 ft | 422 kts | 144° |
| 2026-04-26 12:36 | 44.00169 | 11.03088 | 41134 ft | 423 kts | 143° |
| 2026-04-26 12:37 | 43.95565 | 11.08170 | 41128 ft | 423 kts | 144° |
| 2026-04-26 12:37 | 43.90934 | 11.13190 | 41125 ft | 422 kts | 144° |
| 2026-04-26 12:38 | 43.86322 | 11.18217 | 41125 ft | 422 kts | 144° |
| 2026-04-26 12:38 | 43.81701 | 11.23227 | 41120 ft | 422 kts | 144° |
| 2026-04-26 12:39 | 43.77079 | 11.28234 | 41126 ft | 422 kts | 144° |
| 2026-04-26 12:39 | 43.72485 | 11.33201 | 41124 ft | 422 kts | 144° |
| 2026-04-26 12:40 | 43.67856 | 11.38192 | 41123 ft | 422 kts | 144° |
| 2026-04-26 12:40 | 43.63225 | 11.43180 | 41123 ft | 423 kts | 144° |
| 2026-04-26 12:41 | 43.58582 | 11.48167 | 41123 ft | 422 kts | 144° |
| 2026-04-26 12:41 | 43.53953 | 11.53132 | 41123 ft | 421 kts | 144° |
| 2026-04-26 12:42 | 43.49340 | 11.58068 | 41119 ft | 419 kts | 144° |
| 2026-04-26 12:42 | 43.44730 | 11.62991 | 41120 ft | 421 kts | 144° |
| 2026-04-26 12:43 | 43.40092 | 11.67936 | 41126 ft | 423 kts | 144° |
| 2026-04-26 12:43 | 43.35437 | 11.72886 | 41126 ft | 422 kts | 144° |
| 2026-04-26 12:44 | 43.30796 | 11.77813 | 41121 ft | 421 kts | 144° |
| 2026-04-26 12:44 | 43.26165 | 11.82720 | 41123 ft | 420 kts | 144° |
| 2026-04-26 12:45 | 43.21545 | 11.87606 | 41121 ft | 419 kts | 144° |
| 2026-04-26 12:45 | 43.16927 | 11.92479 | 41120 ft | 420 kts | 144° |
| 2026-04-26 12:46 | 43.12285 | 11.97369 | 41123 ft | 422 kts | 144° |
| 2026-04-26 12:46 | 43.07618 | 12.02274 | 41124 ft | 424 kts | 144° |
| 2026-04-26 12:47 | 43.02953 | 12.07169 | 41121 ft | 422 kts | 144° |
| 2026-04-26 12:47 | 42.98306 | 12.12034 | 41113 ft | 420 kts | 144° |
| 2026-04-26 12:48 | 42.93672 | 12.16879 | 41117 ft | 420 kts | 144° |
| 2026-04-26 12:48 | 42.89032 | 12.21717 | 41123 ft | 421 kts | 144° |
| 2026-04-26 12:49 | 42.84361 | 12.26580 | 41122 ft | 423 kts | 144° |
| 2026-04-26 12:49 | 42.79671 | 12.31437 | 41119 ft | 423 kts | 146° |
| 2026-04-26 12:50 | 42.74919 | 12.36146 | 41117 ft | 422 kts | 145° |
| 2026-04-26 12:50 | 42.70193 | 12.40848 | 41115 ft | 420 kts | 146° |
| 2026-04-26 12:51 | 42.65498 | 12.45478 | 41108 ft | 419 kts | 145° |
| 2026-04-26 12:51 | 42.60779 | 12.50145 | 41119 ft | 421 kts | 146° |
| 2026-04-26 12:52 | 42.56022 | 12.54827 | 41128 ft | 424 kts | 146° |
| 2026-04-26 12:52 | 42.51247 | 12.59529 | 41142 ft | 423 kts | 146° |
| 2026-04-26 12:53 | 42.46496 | 12.64189 | 41142 ft | 420 kts | 146° |
| 2026-04-26 12:53 | 42.41773 | 12.68818 | 41111 ft | 420 kts | 146° |
| 2026-04-26 12:53 | 42.39385 | 12.71153 | 40753 ft | 426 kts | 146° |
| 2026-04-26 12:54 | 42.36994 | 12.73489 | 40330 ft | 421 kts | 146° |
| 2026-04-26 12:54 | 42.34636 | 12.75795 | 39908 ft | 414 kts | 146° |
| 2026-04-26 12:54 | 42.32323 | 12.78051 | 39486 ft | 407 kts | 146° |
| 2026-04-26 12:54 | 42.30043 | 12.80272 | 39072 ft | 401 kts | 146° |
| 2026-04-26 12:55 | 42.27789 | 12.82467 | 38634 ft | 398 kts | 146° |
| 2026-04-26 12:55 | 42.25536 | 12.84657 | 38204 ft | 400 kts | 146° |
| 2026-04-26 12:55 | 42.24004 | 12.86146 | 37929 ft | 404 kts | 146° |
| 2026-04-26 12:55 | 42.20968 | 12.89095 | 37379 ft | 408 kts | 146° |
| 2026-04-26 12:56 | 42.19408 | 12.90609 | 37095 ft | 410 kts | 146° |
| 2026-04-26 12:56 | 42.17095 | 12.92853 | 36678 ft | 410 kts | 146° |
| 2026-04-26 12:56 | 42.14781 | 12.95096 | 36254 ft | 410 kts | 146° |
| 2026-04-26 12:56 | 42.12465 | 12.97337 | 35830 ft | 410 kts | 146° |
| 2026-04-26 12:57 | 42.10178 | 12.99546 | 35419 ft | 410 kts | 146° |
| 2026-04-26 12:57 | 42.07861 | 13.01786 | 34999 ft | 410 kts | 146° |
| 2026-04-26 12:57 | 42.05544 | 13.04022 | 34583 ft | 411 kts | 146° |
| 2026-04-26 12:58 | 42.00878 | 13.08520 | 33715 ft | 414 kts | 145° |
| 2026-04-26 12:58 | 41.98539 | 13.10772 | 33283 ft | 413 kts | 145° |
| 2026-04-26 12:58 | 41.96201 | 13.13019 | 32859 ft | 413 kts | 145° |
| 2026-04-26 12:58 | 41.93856 | 13.15273 | 32442 ft | 415 kts | 145° |
| 2026-04-26 12:59 | 41.91507 | 13.17528 | 32015 ft | 416 kts | 145° |
| 2026-04-26 12:59 | 41.89154 | 13.19784 | 31589 ft | 416 kts | 145° |
| 2026-04-26 12:59 | 41.86803 | 13.22035 | 31168 ft | 413 kts | 145° |
| 2026-04-26 12:59 | 41.84479 | 13.24260 | 30746 ft | 408 kts | 145° |
| 2026-04-26 13:00 | 41.82175 | 13.26464 | 30335 ft | 405 kts | 145° |
| 2026-04-26 13:00 | 41.79888 | 13.28649 | 29888 ft | 402 kts | 145° |
| 2026-04-26 13:00 | 41.77620 | 13.30814 | 29479 ft | 399 kts | 145° |
| 2026-04-26 13:00 | 41.75428 | 13.33070 | 29062 ft | 397 kts | 137° |
| 2026-04-26 13:01 | 41.73586 | 13.35821 | 28665 ft | 397 kts | 126° |
| 2026-04-26 13:01 | 41.72167 | 13.38971 | 28265 ft | 395 kts | 115° |
| 2026-04-26 13:01 | 41.71095 | 13.42336 | 27867 ft | 392 kts | 112° |
| 2026-04-26 13:01 | 41.70040 | 13.45686 | 27469 ft | 390 kts | 112° |
| 2026-04-26 13:02 | 41.68983 | 13.49021 | 27071 ft | 387 kts | 112° |
| 2026-04-26 13:02 | 41.67939 | 13.52322 | 26674 ft | 384 kts | 112° |
| 2026-04-26 13:02 | 41.66902 | 13.55605 | 26284 ft | 381 kts | 112° |
| 2026-04-26 13:02 | 41.65871 | 13.58861 | 25898 ft | 379 kts | 112° |
| 2026-04-26 13:03 | 41.64846 | 13.62090 | 25514 ft | 377 kts | 112° |
| 2026-04-26 13:03 | 41.63820 | 13.65317 | 25137 ft | 380 kts | 112° |
| 2026-04-26 13:03 | 41.62772 | 13.68617 | 24752 ft | 389 kts | 112° |
| 2026-04-26 13:03 | 41.61713 | 13.71942 | 24353 ft | 388 kts | 112° |
| 2026-04-26 13:04 | 41.60665 | 13.75223 | 23951 ft | 379 kts | 112° |
| 2026-04-26 13:04 | 41.59634 | 13.78454 | 23541 ft | 378 kts | 112° |
| 2026-04-26 13:04 | 41.58600 | 13.81700 | 23146 ft | 381 kts | 112° |
| 2026-04-26 13:04 | 41.57556 | 13.84963 | 22756 ft | 383 kts | 112° |
| 2026-04-26 13:05 | 41.56502 | 13.88246 | 22365 ft | 386 kts | 112° |
| 2026-04-26 13:05 | 41.55457 | 13.91503 | 21975 ft | 388 kts | 112° |
| 2026-04-26 13:05 | 41.54394 | 13.94818 | 21580 ft | 389 kts | 112° |
| 2026-04-26 13:05 | 41.53325 | 13.98145 | 21181 ft | 391 kts | 113° |
| 2026-04-26 13:06 | 41.52251 | 14.01481 | 20783 ft | 392 kts | 113° |
| 2026-04-26 13:06 | 41.51176 | 14.04818 | 20386 ft | 391 kts | 113° |
| 2026-04-26 13:06 | 41.50108 | 14.08134 | 19987 ft | 387 kts | 113° |
| 2026-04-26 13:06 | 41.49047 | 14.11415 | 19594 ft | 384 kts | 114° |
| 2026-04-26 13:07 | 41.47992 | 14.14675 | 19216 ft | 381 kts | 114° |
| 2026-04-26 13:07 | 41.46947 | 14.17907 | 18827 ft | 379 kts | 114° |
| 2026-04-26 13:07 | 41.45906 | 14.21123 | 18432 ft | 377 kts | 114° |
| 2026-04-26 13:07 | 41.44854 | 14.24364 | 18002 ft | 375 kts | 114° |
| 2026-04-26 13:08 | 41.43836 | 14.27494 | 17631 ft | 372 kts | 114° |
| 2026-04-26 13:08 | 41.42717 | 14.30576 | 17244 ft | 368 kts | 122° |
| 2026-04-26 13:08 | 41.41173 | 14.33271 | 16868 ft | 364 kts | 134° |
| 2026-04-26 13:08 | 41.39327 | 14.35527 | 16509 ft | 353 kts | 141° |
| 2026-04-26 13:09 | 41.37537 | 14.37612 | 16153 ft | 330 kts | 140° |
| 2026-04-26 13:09 | 41.35872 | 14.39573 | 15822 ft | 310 kts | 140° |
| 2026-04-26 13:09 | 41.34299 | 14.41406 | 15514 ft | 292 kts | 140° |
| 2026-04-26 13:09 | 41.32703 | 14.42934 | 15222 ft | 275 kts | 150° |
| 2026-04-26 13:10 | 41.31074 | 14.44251 | 14952 ft | 272 kts | 149° |
| 2026-04-26 13:10 | 41.29469 | 14.45578 | 14686 ft | 272 kts | 151° |
| 2026-04-26 13:10 | 41.27719 | 14.46477 | 14410 ft | 270 kts | 169° |
| 2026-04-26 13:10 | 41.25858 | 14.46704 | 14135 ft | 269 kts | 185° |
| 2026-04-26 13:11 | 41.24024 | 14.46256 | 13860 ft | 269 kts | 200° |
| 2026-04-26 13:11 | 41.22350 | 14.45169 | 13574 ft | 267 kts | 216° |
| 2026-04-26 13:11 | 41.20970 | 14.43539 | 13290 ft | 264 kts | 231° |
| 2026-04-26 13:11 | 41.19932 | 14.41550 | 13019 ft | 260 kts | 236° |
| 2026-04-26 13:12 | 41.18580 | 14.39955 | 12760 ft | 262 kts | 215° |
| 2026-04-26 13:12 | 41.16913 | 14.38963 | 12493 ft | 266 kts | 197° |
| 2026-04-26 13:12 | 41.15066 | 14.38712 | 12228 ft | 270 kts | 178° |
| 2026-04-26 13:12 | 41.13244 | 14.39250 | 11955 ft | 269 kts | 159° |
| 2026-04-26 13:13 | 41.11647 | 14.40521 | 11677 ft | 268 kts | 140° |
| 2026-04-26 13:13 | 41.10444 | 14.42374 | 11411 ft | 265 kts | 122° |
| 2026-04-26 13:13 | 41.09745 | 14.44613 | 11198 ft | 261 kts | 102° |
| 2026-04-26 13:13 | 41.09593 | 14.46922 | 11151 ft | 251 kts | 85° |
| 2026-04-26 13:14 | 41.09948 | 14.49132 | 11135 ft | 242 kts | 68° |
| 2026-04-26 13:14 | 41.10734 | 14.51089 | 11134 ft | 242 kts | 56° |
| 2026-04-26 13:14 | 41.11661 | 14.53024 | 11145 ft | 252 kts | 57° |
| 2026-04-26 13:14 | 41.12592 | 14.55009 | 11143 ft | 256 kts | 57° |
| 2026-04-26 13:15 | 41.13546 | 14.57025 | 11143 ft | 260 kts | 57° |
| 2026-04-26 13:15 | 41.14512 | 14.59065 | 11136 ft | 262 kts | 57° |
| 2026-04-26 13:15 | 41.15477 | 14.61122 | 11129 ft | 263 kts | 57° |
| 2026-04-26 13:15 | 41.16428 | 14.63184 | 11132 ft | 261 kts | 57° |
| 2026-04-26 13:16 | 41.17363 | 14.65211 | 11129 ft | 254 kts | 57° |
| 2026-04-26 13:16 | 41.18279 | 14.67187 | 11113 ft | 249 kts | 57° |
| 2026-04-26 13:16 | 41.19181 | 14.69159 | 11112 ft | 251 kts | 60° |
| 2026-04-26 13:16 | 41.19701 | 14.71372 | 11110 ft | 254 kts | 82° |
| 2026-04-26 13:17 | 41.18911 | 14.75895 | 11033 ft | 260 kts | 123° |
| 2026-04-26 13:17 | 41.17644 | 14.77644 | 10708 ft | 269 kts | 144° |
| 2026-04-26 13:18 | 41.14183 | 14.78845 | 9933 ft | 253 kts | 187° |
| 2026-04-26 13:18 | 41.12542 | 14.78197 | 9542 ft | 242 kts | 211° |
| 2026-04-26 13:18 | 41.10252 | 14.75206 | 8863 ft | 225 kts | 237° |
| 2026-04-26 13:19 | 41.09431 | 14.73470 | 8539 ft | 220 kts | 239° |
| 2026-04-26 13:19 | 41.08627 | 14.71765 | 8218 ft | 216 kts | 238° |
| 2026-04-26 13:19 | 41.07844 | 14.70081 | 7911 ft | 213 kts | 239° |
| 2026-04-26 13:19 | 41.07071 | 14.68422 | 7600 ft | 210 kts | 238° |
| 2026-04-26 13:20 | 41.06299 | 14.66788 | 7298 ft | 208 kts | 238° |
| 2026-04-26 13:20 | 41.05531 | 14.65177 | 6999 ft | 206 kts | 238° |
| 2026-04-26 13:20 | 41.04774 | 14.63572 | 6702 ft | 205 kts | 238° |
| 2026-04-26 13:20 | 41.04030 | 14.61974 | 6395 ft | 203 kts | 238° |
| 2026-04-26 13:21 | 41.03292 | 14.60385 | 6092 ft | 202 kts | 238° |
| 2026-04-26 13:21 | 41.02805 | 14.59341 | 5901 ft | 201 kts | 238° |
| 2026-04-26 13:21 | 41.01837 | 14.57271 | 5512 ft | 199 kts | 238° |
| 2026-04-26 13:21 | 41.01110 | 14.55723 | 5221 ft | 198 kts | 238° |
| 2026-04-26 13:22 | 41.00389 | 14.54178 | 4881 ft | 199 kts | 238° |
| 2026-04-26 13:22 | 40.99661 | 14.52600 | 4516 ft | 201 kts | 238° |
| 2026-04-26 13:22 | 40.98923 | 14.51035 | 4228 ft | 199 kts | 238° |
| 2026-04-26 13:22 | 40.98190 | 14.49477 | 3919 ft | 199 kts | 238° |
| 2026-04-26 13:23 | 40.97464 | 14.47935 | 3639 ft | 196 kts | 238° |
| 2026-04-26 13:23 | 40.96762 | 14.46442 | 3366 ft | 184 kts | 238° |
| 2026-04-26 13:23 | 40.96133 | 14.45096 | 3086 ft | 162 kts | 239° |
| 2026-04-26 13:23 | 40.95565 | 14.43883 | 2859 ft | 151 kts | 239° |
| 2026-04-26 13:24 | 40.95027 | 14.42741 | 2657 ft | 144 kts | 239° |
| 2026-04-26 13:24 | 40.94498 | 14.41614 | 2443 ft | 143 kts | 239° |
| 2026-04-26 13:24 | 40.93981 | 14.40515 | 2250 ft | 140 kts | 239° |
| 2026-04-26 13:24 | 40.93490 | 14.39435 | 2074 ft | 130 kts | 239° |
| 2026-04-26 13:25 | 40.93032 | 14.38479 | 1837 ft | 117 kts | 239° |
| 2026-04-26 13:25 | 40.92631 | 14.37625 | 1670 ft | 105 kts | 240° |
| 2026-04-26 13:25 | 40.92186 | 14.36674 | 1657 ft | 128 kts | 239° |
| 2026-04-26 13:25 | 40.91764 | 14.35788 | 1425 ft | 114 kts | 240° |
| 2026-04-26 13:26 | 40.91358 | 14.34918 | 1151 ft | 108 kts | 235° |
| 2026-04-26 13:26 | 40.90970 | 14.34098 | 1012 ft | 102 kts | 237° |
| 2026-04-26 13:26 | 40.90549 | 14.33203 | 996 ft | 128 kts | 234° |
| 2026-04-26 13:26 | 40.90101 | 14.32245 | 1076 ft | 114 kts | 238° |
| 2026-04-26 13:27 | 40.89706 | 14.31345 | 646 ft | 114 kts | 235° |
| 2026-04-26 13:27 | 40.89300 | 14.30505 | 320 ft | 106 kts | 233° |
| 2026-04-26 13:27 | 40.88918 | 14.29741 | 245 ft | 88 kts | 234° |
| 2026-04-26 13:27 | 40.88640 | 14.29153 | 259 ft | 64 kts | 239° |
| 2026-04-26 13:28 | 40.88485 | 14.28817 | 272 ft | 13 kts | 237° |
| 2026-04-26 13:28 | 40.88458 | 14.28768 | 273 ft | 0 kts | 222° |
| 2026-04-26 13:28 | 40.88414 | 14.28767 | 273 ft | 10 kts | 152° |
| 2026-04-26 13:28 | 40.88348 | 14.28820 | 271 ft | 0 kts | 149° |
| 2026-04-26 13:30 | 40.88332 | 14.28833 | 271 ft | 9 kts | 149° |
| 2026-04-26 13:30 | 40.88276 | 14.28880 | 271 ft | 10 kts | 141° |
| 2026-04-26 13:31 | 40.88234 | 14.28905 | 271 ft | 7 kts | 178° |
| 2026-04-26 13:31 | 40.88191 | 14.28858 | 273 ft | 10 kts | 232° |
| 2026-04-26 13:31 | 40.88138 | 14.28767 | 276 ft | 14 kts | 233° |
| 2026-04-26 13:31 | 40.88070 | 14.28648 | 280 ft | 18 kts | 232° |
| 2026-04-26 13:32 | 40.88050 | 14.28492 | 283 ft | 20 kts | 284° |
| 2026-04-26 13:32 | 40.88062 | 14.28305 | 287 ft | 18 kts | 275° |
| 2026-04-26 13:32 | 40.88042 | 14.28198 | 290 ft | 13 kts | 245° |
| 2026-04-26 13:32 | 40.87961 | 14.28099 | 295 ft | 17 kts | 208° |
| 2026-04-26 13:33 | 40.87898 | 14.28021 | 298 ft | 7 kts | 228° |
| 2026-04-26 13:33 | 40.87851 | 14.27949 | 299 ft | 10 kts | 232° |
| 2026-04-26 13:33 | 40.87808 | 14.27919 | 300 ft | 8 kts | 166° |
| 2026-04-26 13:33 | 40.87755 | 14.27932 | 301 ft | 8 kts | 172° |
| 2026-04-26 13:34 | 40.87711 | 14.27968 | 302 ft | 8 kts | 144° |
| 2026-04-26 13:34 | 40.87685 | 14.27957 | 304 ft | 4 kts | 255° |
| 2026-04-26 13:34 | 40.87699 | 14.27941 | 303 ft | 2 kts | 353° |